createdAt,value
2019-03-08T00:00:41.969Z,0.00
2019-03-08T00:01:42.001Z,0.00
2019-03-08T00:02:41.949Z,0.00
2019-03-08T00:03:41.966Z,0.00
2019-03-08T00:04:41.954Z,0.00
2019-03-08T00:05:41.917Z,0.00
2019-03-08T00:06:41.903Z,0.00
2019-03-08T00:07:41.913Z,0.00
2019-03-08T00:08:41.883Z,0.00
2019-03-08T00:09:41.871Z,0.00
2019-03-08T00:10:41.860Z,0.00
2019-03-08T00:11:41.848Z,0.00
2019-03-08T00:12:41.853Z,0.00
2019-03-08T00:13:41.829Z,0.00
2019-03-08T00:14:41.812Z,0.00
2019-03-08T00:15:41.801Z,0.00
2019-03-08T00:16:41.792Z,0.00
2019-03-08T00:17:41.820Z,0.00
2019-03-08T00:18:41.768Z,0.00
2019-03-08T00:19:41.759Z,0.00
2019-03-08T00:20:41.745Z,0.00
2019-03-08T00:21:41.733Z,0.00
2019-03-08T00:22:41.725Z,0.00
2019-03-08T00:23:41.729Z,0.00
2019-03-08T00:24:41.698Z,0.00
2019-03-08T00:25:43.545Z,0.00
2019-03-08T00:26:41.677Z,0.00
2019-03-08T00:27:41.685Z,0.00
2019-03-08T00:28:41.652Z,0.00
2019-03-08T00:29:41.645Z,0.00
2019-03-08T00:30:41.635Z,0.00
2019-03-08T00:31:41.624Z,0.00
2019-03-08T00:32:41.646Z,0.00
2019-03-08T00:33:41.603Z,0.00
2019-03-08T00:34:41.615Z,0.00
2019-03-08T00:35:41.579Z,0.00
2019-03-08T00:36:41.585Z,0.00
2019-03-08T00:37:41.573Z,0.00
2019-03-08T00:38:41.543Z,0.00
2019-03-08T00:39:41.535Z,0.00
2019-03-08T00:40:41.521Z,0.00
2019-03-08T00:41:41.508Z,0.00
2019-03-08T00:42:41.520Z,0.00
2019-03-08T00:43:41.488Z,0.00
2019-03-08T00:44:41.474Z,0.00
2019-03-08T00:45:41.462Z,0.00
2019-03-08T00:46:41.450Z,0.00
2019-03-08T00:47:43.403Z,0.00
2019-03-08T00:48:41.427Z,0.00
2019-03-08T00:49:41.417Z,0.00
2019-03-08T00:50:41.404Z,0.00
2019-03-08T00:51:41.396Z,0.00
2019-03-08T00:52:41.405Z,0.00
2019-03-08T00:53:41.373Z,0.00
2019-03-08T00:54:41.358Z,0.00
2019-03-08T00:55:41.349Z,0.00
2019-03-08T00:56:41.336Z,0.00
2019-03-08T00:57:41.344Z,0.00
2019-03-08T00:58:41.315Z,0.00
2019-03-08T00:59:41.300Z,0.00
2019-03-08T01:00:41.291Z,0.00
2019-03-08T01:01:41.305Z,0.00
2019-03-08T01:02:41.338Z,0.00
2019-03-08T01:03:41.257Z,0.00
2019-03-08T01:04:41.246Z,0.00
2019-03-08T01:05:41.254Z,0.00
2019-03-08T01:06:41.222Z,0.00
2019-03-08T01:07:41.288Z,0.00
2019-03-08T01:08:41.198Z,0.00
2019-03-08T01:09:41.207Z,0.00
2019-03-08T01:10:41.196Z,0.00
2019-03-08T01:11:41.166Z,0.00
2019-03-08T01:12:41.166Z,0.00
2019-03-08T01:13:41.158Z,0.00
2019-03-08T01:14:41.132Z,0.00
2019-03-08T01:15:41.129Z,0.00
2019-03-08T01:16:41.109Z,0.00
2019-03-08T01:17:41.112Z,0.00
2019-03-08T01:18:41.100Z,0.00
2019-03-08T01:19:41.098Z,0.00
2019-03-08T01:20:41.061Z,0.00
2019-03-08T01:21:41.046Z,0.00
2019-03-08T01:22:41.037Z,0.00
2019-03-08T01:23:41.045Z,0.00
2019-03-08T01:24:41.013Z,0.00
2019-03-08T01:25:41.001Z,0.00
2019-03-08T01:26:40.989Z,0.00
2019-03-08T01:27:40.978Z,0.00
2019-03-08T01:28:40.985Z,0.00
2019-03-08T01:29:41.001Z,0.00
2019-03-08T01:30:40.949Z,0.00
2019-03-08T01:31:40.933Z,0.00
2019-03-08T01:32:40.923Z,0.00
2019-03-08T01:33:40.927Z,0.00
2019-03-08T01:34:40.901Z,0.00
2019-03-08T01:35:40.887Z,0.00
2019-03-08T01:36:40.878Z,0.00
2019-03-08T01:37:40.866Z,0.00
2019-03-08T01:38:40.874Z,0.00
2019-03-08T01:39:40.842Z,0.00
2019-03-08T01:40:40.833Z,0.00
2019-03-08T01:41:40.821Z,0.00
2019-03-08T01:42:40.808Z,0.00
2019-03-08T01:43:40.816Z,0.00
2019-03-08T01:44:40.787Z,0.00
2019-03-08T01:45:40.775Z,0.00
2019-03-08T01:46:40.763Z,0.00
2019-03-08T01:47:40.750Z,0.00
2019-03-08T01:48:40.782Z,0.00
2019-03-08T01:49:40.732Z,0.00
2019-03-08T01:50:40.717Z,0.00
2019-03-08T01:51:40.708Z,0.00
2019-03-08T01:52:40.699Z,0.00
2019-03-08T01:53:40.692Z,0.00
2019-03-08T01:54:40.693Z,0.00
2019-03-08T01:55:40.666Z,0.00
2019-03-08T01:56:40.649Z,0.00
2019-03-08T01:57:40.641Z,0.00
2019-03-08T01:58:40.627Z,0.00
2019-03-08T01:59:40.639Z,0.00
2019-03-08T02:00:40.905Z,0.00
2019-03-08T02:01:40.595Z,0.00
2019-03-08T02:02:40.584Z,0.00
2019-03-08T02:03:40.571Z,0.00
2019-03-08T02:04:40.558Z,0.00
2019-03-08T02:05:40.567Z,0.00
2019-03-08T02:06:40.538Z,0.00
2019-03-08T02:07:40.525Z,0.00
2019-03-08T02:08:40.514Z,0.00
2019-03-08T02:09:40.504Z,0.00
2019-03-08T02:10:40.509Z,0.00
2019-03-08T02:11:40.481Z,0.00
2019-03-08T02:12:42.043Z,0.00
2019-03-08T02:13:40.458Z,0.00
2019-03-08T02:14:40.445Z,0.00
2019-03-08T02:15:40.454Z,0.00
2019-03-08T02:16:40.424Z,0.00
2019-03-08T02:17:40.410Z,0.00
2019-03-08T02:18:40.400Z,0.00
2019-03-08T02:19:40.389Z,0.00
2019-03-08T02:20:40.399Z,0.00
2019-03-08T02:21:40.368Z,0.00
2019-03-08T02:22:40.359Z,0.00
2019-03-08T02:23:40.345Z,0.00
2019-03-08T02:24:40.332Z,0.00
2019-03-08T02:25:40.369Z,0.00
2019-03-08T02:26:40.313Z,0.00
2019-03-08T02:27:47.361Z,0.00
2019-03-08T02:28:40.290Z,0.00
2019-03-08T02:29:40.275Z,0.00
2019-03-08T02:30:40.266Z,0.00
2019-03-08T02:31:40.272Z,0.00
2019-03-08T02:32:40.248Z,0.00
2019-03-08T02:33:40.297Z,0.00
2019-03-08T02:34:40.221Z,0.00
2019-03-08T02:35:40.210Z,0.00
2019-03-08T02:36:40.212Z,0.00
2019-03-08T02:37:40.188Z,0.00
2019-03-08T02:38:40.175Z,0.00
2019-03-08T02:39:40.162Z,0.00
2019-03-08T02:40:40.150Z,0.00
2019-03-08T02:41:40.158Z,0.00
2019-03-08T02:42:40.130Z,0.00
2019-03-08T02:43:40.117Z,0.00
2019-03-08T02:44:40.104Z,0.00
2019-03-08T02:45:40.094Z,0.00
2019-03-08T02:46:40.123Z,0.00
2019-03-08T02:47:40.069Z,0.00
2019-03-08T02:48:40.058Z,0.00
2019-03-08T02:49:40.047Z,0.00
2019-03-08T02:50:40.038Z,0.00
2019-03-08T02:51:40.025Z,0.00
2019-03-08T02:52:40.030Z,0.00
2019-03-08T02:53:39.999Z,0.00
2019-03-08T02:54:39.989Z,0.00
2019-03-08T02:55:39.979Z,0.00
2019-03-08T02:56:39.968Z,0.00
2019-03-08T02:57:39.975Z,0.00
2019-03-08T02:58:39.943Z,0.00
2019-03-08T02:59:39.931Z,0.00
2019-03-08T03:00:39.918Z,0.00
2019-03-08T03:01:39.910Z,0.00
2019-03-08T03:02:39.923Z,0.00
2019-03-08T03:03:39.883Z,0.00
2019-03-08T03:04:39.876Z,0.00
2019-03-08T03:05:39.863Z,0.00
2019-03-08T03:06:39.850Z,0.00
2019-03-08T03:07:39.841Z,0.00
2019-03-08T03:08:39.845Z,0.00
2019-03-08T03:09:39.817Z,0.00
2019-03-08T03:10:39.805Z,0.00
2019-03-08T03:11:39.791Z,0.00
2019-03-08T03:12:39.782Z,0.00
2019-03-08T03:13:39.789Z,0.00
2019-03-08T03:14:39.758Z,0.00
2019-03-08T03:15:39.751Z,0.00
2019-03-08T03:16:39.734Z,0.00
2019-03-08T03:17:39.724Z,0.00
2019-03-08T03:18:39.730Z,0.00
2019-03-08T03:19:39.701Z,0.00
2019-03-08T03:20:39.688Z,0.00
2019-03-08T03:21:39.677Z,0.00
2019-03-08T03:22:39.664Z,0.00
2019-03-08T03:23:39.671Z,0.00
2019-03-08T03:24:39.642Z,0.00
2019-03-08T03:25:39.633Z,0.00
2019-03-08T03:26:39.620Z,0.00
2019-03-08T03:27:39.608Z,0.00
2019-03-08T03:28:39.621Z,0.00
2019-03-08T03:29:39.587Z,0.00
2019-03-08T03:30:39.578Z,0.00
2019-03-08T03:31:39.563Z,0.00
2019-03-08T03:32:39.552Z,0.00
2019-03-08T03:33:39.539Z,0.00
2019-03-08T03:34:39.576Z,0.00
2019-03-08T03:35:39.518Z,0.00
2019-03-08T03:36:39.506Z,0.00
2019-03-08T03:37:39.510Z,0.00
2019-03-08T03:38:39.482Z,0.00
2019-03-08T03:39:39.497Z,0.00
2019-03-08T03:40:39.462Z,0.00
2019-03-08T03:41:39.447Z,0.00
2019-03-08T03:42:39.439Z,0.00
2019-03-08T03:43:39.425Z,0.00
2019-03-08T03:44:39.411Z,0.00
2019-03-08T03:45:39.420Z,0.00
2019-03-08T03:46:39.390Z,0.00
2019-03-08T03:47:39.377Z,0.00
2019-03-08T03:48:39.367Z,0.00
2019-03-08T03:49:39.354Z,0.00
2019-03-08T03:50:39.361Z,0.00
2019-03-08T03:51:39.333Z,0.00
2019-03-08T03:52:39.323Z,0.00
2019-03-08T03:53:39.309Z,0.00
2019-03-08T03:54:39.296Z,0.00
2019-03-08T03:55:39.304Z,0.00
2019-03-08T03:56:39.273Z,0.00
2019-03-08T03:57:39.264Z,0.00
2019-03-08T03:58:39.249Z,0.00
2019-03-08T03:59:39.241Z,0.00
2019-03-08T04:00:39.247Z,0.00
2019-03-08T04:01:39.218Z,0.00
2019-03-08T04:02:39.206Z,0.00
2019-03-08T04:03:39.193Z,0.00
2019-03-08T04:04:39.182Z,0.00
2019-03-08T04:05:39.202Z,0.00
2019-03-08T04:06:39.157Z,0.00
2019-03-08T04:07:39.148Z,0.00
2019-03-08T04:08:39.136Z,0.00
2019-03-08T04:09:39.125Z,0.00
2019-03-08T04:10:39.137Z,0.00
2019-03-08T04:11:39.104Z,0.00
2019-03-08T04:12:39.094Z,0.00
2019-03-08T04:13:39.082Z,0.00
2019-03-08T04:14:39.067Z,0.00
2019-03-08T04:15:39.058Z,0.00
2019-03-08T04:16:39.065Z,0.00
2019-03-08T04:17:39.034Z,0.00
2019-03-08T04:18:39.022Z,0.00
2019-03-08T04:19:39.013Z,0.00
2019-03-08T04:20:39.001Z,0.00
2019-03-08T04:21:39.011Z,0.00
2019-03-08T04:22:38.978Z,0.00
2019-03-08T04:23:38.967Z,0.00
2019-03-08T04:24:38.963Z,0.00
2019-03-08T04:25:38.945Z,0.00
2019-03-08T04:26:38.932Z,0.00
2019-03-08T04:27:38.937Z,0.00
2019-03-08T04:28:38.906Z,0.00
2019-03-08T04:29:38.896Z,0.00
2019-03-08T04:30:38.885Z,0.00
2019-03-08T04:31:38.873Z,0.00
2019-03-08T04:32:38.885Z,0.00
2019-03-08T04:33:38.849Z,0.00
2019-03-08T04:34:38.840Z,0.00
2019-03-08T04:35:38.828Z,0.00
2019-03-08T04:36:38.820Z,0.00
2019-03-08T04:37:38.824Z,0.00
2019-03-08T04:38:38.796Z,0.00
2019-03-08T04:39:38.782Z,0.00
2019-03-08T04:40:38.773Z,0.00
2019-03-08T04:41:38.758Z,0.00
2019-03-08T04:42:38.769Z,0.00
2019-03-08T04:43:38.736Z,0.00
2019-03-08T04:44:38.725Z,0.00
2019-03-08T04:45:38.716Z,0.00
2019-03-08T04:46:38.701Z,0.00
2019-03-08T04:47:38.712Z,0.00
2019-03-08T04:48:38.685Z,0.00
2019-03-08T04:49:38.670Z,0.00
2019-03-08T04:50:38.659Z,0.00
2019-03-08T04:51:38.647Z,0.00
2019-03-08T04:52:38.653Z,0.00
2019-03-08T04:53:38.625Z,0.00
2019-03-08T04:54:38.612Z,0.00
2019-03-08T04:55:38.600Z,0.00
2019-03-08T04:56:38.589Z,0.00
2019-03-08T04:57:38.617Z,0.00
2019-03-08T04:58:38.571Z,0.00
2019-03-08T04:59:38.556Z,0.00
2019-03-08T05:00:38.545Z,0.00
2019-03-08T05:01:38.535Z,0.00
2019-03-08T05:02:38.522Z,0.00
2019-03-08T05:03:38.528Z,0.00
2019-03-08T05:04:38.502Z,0.00
2019-03-08T05:05:38.487Z,0.00
2019-03-08T05:06:38.476Z,0.00
2019-03-08T05:07:38.475Z,0.00
2019-03-08T05:08:38.473Z,0.00
2019-03-08T05:09:38.444Z,0.00
2019-03-08T05:10:38.432Z,0.00
2019-03-08T05:11:38.418Z,0.00
2019-03-08T05:12:38.408Z,0.00
2019-03-08T05:13:38.418Z,0.00
2019-03-08T05:14:38.385Z,0.00
2019-03-08T05:15:38.376Z,0.00
2019-03-08T05:16:38.363Z,0.00
2019-03-08T05:17:38.352Z,0.00
2019-03-08T05:18:38.390Z,0.00
2019-03-08T05:19:38.331Z,0.00
2019-03-08T05:20:38.319Z,0.00
2019-03-08T05:21:38.306Z,0.00
2019-03-08T05:22:38.296Z,0.00
2019-03-08T05:23:38.280Z,0.00
2019-03-08T05:24:38.291Z,0.00
2019-03-08T05:25:38.260Z,0.00
2019-03-08T05:26:38.247Z,0.00
2019-03-08T05:27:38.236Z,0.00
2019-03-08T05:28:38.225Z,0.00
2019-03-08T05:29:38.235Z,0.00
2019-03-08T05:30:38.200Z,0.00
2019-03-08T05:31:38.190Z,4.00
2019-03-08T05:32:38.178Z,4.00
2019-03-08T05:33:38.165Z,4.00
2019-03-08T05:34:38.176Z,4.00
2019-03-08T05:35:38.144Z,0.00
2019-03-08T05:36:38.131Z,0.00
2019-03-08T05:37:38.119Z,4.00
2019-03-08T05:38:38.111Z,4.00
2019-03-08T05:39:38.099Z,4.00
2019-03-08T05:40:38.102Z,8.00
2019-03-08T05:41:38.073Z,8.00
2019-03-08T05:42:38.062Z,16.00
2019-03-08T05:43:38.053Z,16.00
2019-03-08T05:44:38.039Z,16.00
2019-03-08T05:45:38.047Z,16.00
2019-03-08T05:46:38.015Z,24.00
2019-03-08T05:47:38.003Z,32.00
2019-03-08T05:48:37.995Z,40.00
2019-03-08T05:49:37.981Z,48.00
2019-03-08T05:50:37.988Z,52.00
2019-03-08T05:51:37.960Z,64.00
2019-03-08T05:52:37.948Z,76.00
2019-03-08T05:53:37.936Z,80.00
2019-03-08T05:54:37.937Z,96.00
2019-03-08T05:55:37.930Z,96.00
2019-03-08T05:56:37.901Z,112.00
2019-03-08T05:57:37.888Z,96.00
2019-03-08T05:58:37.895Z,104.00
2019-03-08T05:59:37.872Z,132.00
2019-03-08T06:00:37.874Z,140.00
2019-03-08T06:01:37.843Z,152.00
2019-03-08T06:02:37.831Z,188.00
2019-03-08T06:03:37.819Z,208.00
2019-03-08T06:04:37.807Z,216.00
2019-03-08T06:05:37.815Z,236.00
2019-03-08T06:06:37.786Z,260.00
2019-03-08T06:07:37.776Z,252.00
2019-03-08T06:08:37.762Z,264.00
2019-03-08T06:09:37.751Z,300.00
2019-03-08T06:10:37.757Z,336.00
2019-03-08T06:11:37.729Z,364.00
2019-03-08T06:12:37.716Z,388.00
2019-03-08T06:13:37.705Z,320.00
2019-03-08T06:14:37.695Z,340.00
2019-03-08T06:15:37.700Z,392.00
2019-03-08T06:16:37.670Z,468.00
2019-03-08T06:17:37.671Z,560.00
2019-03-08T06:18:37.647Z,592.00
2019-03-08T06:19:37.635Z,688.00
2019-03-08T06:20:37.646Z,756.00
2019-03-08T06:21:37.613Z,884.00
2019-03-08T06:22:37.602Z,936.00
2019-03-08T06:23:37.592Z,948.00
2019-03-08T06:24:37.582Z,900.00
2019-03-08T06:25:37.587Z,852.00
2019-03-08T06:26:37.556Z,832.00
2019-03-08T06:27:37.545Z,864.00
2019-03-08T06:28:37.538Z,908.00
2019-03-08T06:29:37.521Z,1000.00
2019-03-08T06:30:37.528Z,964.00
2019-03-08T06:31:37.499Z,840.00
2019-03-08T06:32:37.487Z,1012.00
2019-03-08T06:33:37.474Z,1036.00
2019-03-08T06:34:37.467Z,1052.00
2019-03-08T06:35:37.471Z,1032.00
2019-03-08T06:36:37.446Z,800.00
2019-03-08T06:37:37.429Z,768.00
2019-03-08T06:38:37.422Z,844.00
2019-03-08T06:39:37.405Z,996.00
2019-03-08T06:40:37.415Z,1112.00
2019-03-08T06:41:37.381Z,1012.00
2019-03-08T06:42:37.371Z,1452.00
2019-03-08T06:43:37.358Z,1644.00
2019-03-08T06:44:37.348Z,1544.00
2019-03-08T06:45:37.354Z,1480.00
2019-03-08T06:46:37.327Z,1880.00
2019-03-08T06:47:37.313Z,2244.00
2019-03-08T06:48:37.302Z,2324.00
2019-03-08T06:49:37.292Z,1664.00
2019-03-08T06:50:37.302Z,1552.00
2019-03-08T06:51:37.271Z,1776.00
2019-03-08T06:52:37.257Z,1744.00
2019-03-08T06:53:37.245Z,1588.00
2019-03-08T06:54:37.236Z,1664.00
2019-03-08T06:55:37.246Z,1660.00
2019-03-08T06:56:37.212Z,1536.00
2019-03-08T06:57:37.199Z,1532.00
2019-03-08T06:58:37.191Z,1236.00
2019-03-08T06:59:37.197Z,1156.00
2019-03-08T07:00:37.229Z,1240.00
2019-03-08T07:01:37.158Z,1332.00
2019-03-08T07:02:37.146Z,1784.00
2019-03-08T07:03:37.139Z,1892.00
2019-03-08T07:04:37.121Z,1816.00
2019-03-08T07:05:37.120Z,2024.00
2019-03-08T07:06:37.117Z,2140.00
2019-03-08T07:07:37.087Z,2484.00
2019-03-08T07:08:37.080Z,2540.00
2019-03-08T07:09:37.068Z,2760.00
2019-03-08T07:10:37.054Z,2580.00
2019-03-08T07:11:37.059Z,2644.00
2019-03-08T07:12:37.031Z,2608.00
2019-03-08T07:13:37.019Z,1988.00
2019-03-08T07:14:37.009Z,1464.00
2019-03-08T07:15:36.999Z,1652.00
2019-03-08T07:16:37.005Z,1880.00
2019-03-08T07:17:36.975Z,1964.00
2019-03-08T07:18:36.963Z,2408.00
2019-03-08T07:19:40.968Z,2544.00
2019-03-08T07:20:37.938Z,2444.00
2019-03-08T07:21:36.950Z,2476.00
2019-03-08T07:22:36.921Z,2404.00
2019-03-08T07:23:36.905Z,2508.00
2019-03-08T07:24:36.894Z,2740.00
2019-03-08T07:25:36.885Z,2576.00
2019-03-08T07:26:36.893Z,2768.00
2019-03-08T07:27:36.864Z,2824.00
2019-03-08T07:28:36.857Z,2704.00
2019-03-08T07:29:36.842Z,2904.00
2019-03-08T07:30:36.827Z,2920.00
2019-03-08T07:31:36.836Z,2808.00
2019-03-08T07:32:36.804Z,2800.00
2019-03-08T07:33:36.800Z,2644.00
2019-03-08T07:34:36.784Z,3040.00
2019-03-08T07:35:36.773Z,3328.00
2019-03-08T07:36:36.801Z,3296.00
2019-03-08T07:37:36.748Z,3512.00
2019-03-08T07:38:36.737Z,3880.00
2019-03-08T07:39:36.727Z,3264.00
2019-03-08T07:40:36.717Z,3912.00
2019-03-08T07:41:36.704Z,4080.00
2019-03-08T07:42:36.713Z,4424.00
2019-03-08T07:43:36.703Z,5052.00
2019-03-08T07:44:36.669Z,6128.00
2019-03-08T07:45:36.660Z,6584.00
2019-03-08T07:46:36.647Z,8124.00
2019-03-08T07:47:36.658Z,5364.00
2019-03-08T07:48:36.625Z,4752.00
2019-03-08T07:49:36.611Z,5132.00
2019-03-08T07:50:36.604Z,4864.00
2019-03-08T07:51:36.588Z,5212.00
2019-03-08T07:52:36.597Z,5308.00
2019-03-08T07:53:36.569Z,5476.00
2019-03-08T07:54:36.554Z,5924.00
2019-03-08T07:55:36.548Z,6056.00
2019-03-08T07:56:36.533Z,6676.00
2019-03-08T07:57:36.544Z,6916.00
2019-03-08T07:58:36.510Z,8848.00
2019-03-08T07:59:36.499Z,12704.00
2019-03-08T08:00:36.487Z,14840.00
2019-03-08T08:01:36.475Z,18560.00
2019-03-08T08:02:36.482Z,20096.00
2019-03-08T08:03:36.452Z,23520.00
2019-03-08T08:04:36.442Z,19872.00
2019-03-08T08:05:36.427Z,15624.00
2019-03-08T08:06:36.418Z,10984.00
2019-03-08T08:07:36.421Z,12240.00
2019-03-08T08:08:36.395Z,15084.00
2019-03-08T08:09:36.381Z,27584.00
2019-03-08T08:10:36.372Z,22592.00
2019-03-08T08:11:36.359Z,19936.00
2019-03-08T08:12:36.370Z,32640.00
2019-03-08T08:13:36.335Z,21184.00
2019-03-08T08:14:39.564Z,21152.00
2019-03-08T08:15:36.313Z,12284.00
2019-03-08T08:16:36.302Z,9636.00
2019-03-08T08:17:36.308Z,8232.00
2019-03-08T08:18:36.277Z,5148.00
2019-03-08T08:19:36.267Z,4432.00
2019-03-08T08:20:36.257Z,6008.00
2019-03-08T08:21:36.245Z,6796.00
2019-03-08T08:22:36.273Z,7208.00
2019-03-08T08:23:36.225Z,6800.00
2019-03-08T08:24:36.211Z,7356.00
2019-03-08T08:25:37.016Z,7264.00
2019-03-08T08:26:36.192Z,8812.00
2019-03-08T08:28:28.577Z,9900.00
2019-03-08T08:29:35.067Z,15212.00
2019-03-08T08:30:29.544Z,17696.00
2019-03-08T08:31:28.528Z,18720.00
2019-03-08T08:32:28.520Z,14760.00
2019-03-08T08:33:28.522Z,12944.00
2019-03-08T08:34:28.492Z,11748.00
2019-03-08T08:35:28.486Z,8200.00
2019-03-08T08:36:28.473Z,5992.00
2019-03-08T08:37:28.458Z,6384.00
2019-03-08T08:38:28.466Z,7100.00
2019-03-08T08:39:28.449Z,8568.00
2019-03-08T08:40:28.423Z,8640.00
2019-03-08T08:41:28.411Z,7484.00
2019-03-08T08:42:28.402Z,6392.00
2019-03-08T08:43:28.405Z,7412.00
2019-03-08T08:44:28.374Z,8408.00
2019-03-08T08:45:28.363Z,8780.00
2019-03-08T08:46:28.353Z,12080.00
2019-03-08T08:47:28.341Z,15416.00
2019-03-08T08:48:28.347Z,10824.00
2019-03-08T08:49:28.321Z,13876.00
2019-03-08T08:50:28.306Z,14648.00
2019-03-08T08:51:28.292Z,15356.00
2019-03-08T08:52:28.283Z,12724.00
2019-03-08T08:53:28.288Z,13304.00
2019-03-08T08:54:28.257Z,15400.00
2019-03-08T08:55:28.247Z,23808.00
2019-03-08T08:56:28.236Z,37760.00
2019-03-08T08:57:28.227Z,14372.00
2019-03-08T08:58:28.255Z,11680.00
2019-03-08T08:59:28.202Z,10000.00
2019-03-08T09:00:28.190Z,9668.00
2019-03-08T09:01:28.181Z,11324.00
2019-03-08T09:02:28.166Z,22464.00
2019-03-08T09:03:28.155Z,30272.00
2019-03-08T09:04:28.164Z,42656.00
2019-03-08T09:05:28.134Z,39648.00
2019-03-08T09:06:28.122Z,27392.00
2019-03-08T09:07:28.111Z,35712.00
2019-03-08T09:08:28.099Z,17536.00
2019-03-08T09:09:28.112Z,14660.00
2019-03-08T09:10:28.074Z,13028.00
2019-03-08T09:11:28.064Z,11424.00
2019-03-08T09:12:28.050Z,12708.00
2019-03-08T09:13:28.043Z,17568.00
2019-03-08T09:14:28.045Z,23264.00
2019-03-08T09:15:28.016Z,14552.00
2019-03-08T09:16:28.004Z,12772.00
2019-03-08T09:17:27.994Z,12692.00
2019-03-08T09:18:27.983Z,14280.00
2019-03-08T09:19:27.990Z,16164.00
2019-03-08T09:20:27.959Z,14968.00
2019-03-08T09:21:27.949Z,11868.00
2019-03-08T09:22:27.935Z,8380.00
2019-03-08T09:23:27.923Z,5668.00
2019-03-08T09:24:27.932Z,4652.00
2019-03-08T09:25:27.901Z,4716.00
2019-03-08T09:26:27.890Z,5764.00
2019-03-08T09:27:27.885Z,10176.00
2019-03-08T09:28:27.868Z,13888.00
2019-03-08T09:29:27.892Z,17376.00
2019-03-08T09:30:27.847Z,10620.00
2019-03-08T09:31:27.833Z,11660.00
2019-03-08T09:32:27.828Z,10376.00
2019-03-08T09:33:27.812Z,8520.00
2019-03-08T09:34:27.796Z,8004.00
2019-03-08T09:35:27.806Z,6848.00
2019-03-08T09:36:27.775Z,5208.00
2019-03-08T09:37:27.764Z,3516.00
2019-03-08T09:38:27.751Z,3756.00
2019-03-08T09:39:27.744Z,4684.00
2019-03-08T09:40:27.749Z,5704.00
2019-03-08T09:41:27.717Z,5980.00
2019-03-08T09:42:27.707Z,7140.00
2019-03-08T09:43:27.697Z,10536.00
2019-03-08T09:44:27.682Z,22112.00
2019-03-08T09:45:27.690Z,30112.00
2019-03-08T09:46:27.658Z,88640.00
2019-03-08T09:47:27.647Z,19808.00
2019-03-08T09:48:27.637Z,13176.00
2019-03-08T09:49:27.623Z,10244.00
2019-03-08T09:50:27.630Z,9744.00
2019-03-08T09:51:27.601Z,8840.00
2019-03-08T09:52:27.590Z,7296.00
2019-03-08T09:53:27.578Z,7152.00
2019-03-08T09:54:27.566Z,9140.00
2019-03-08T09:55:27.573Z,9452.00
2019-03-08T09:56:27.542Z,6008.00
2019-03-08T09:57:27.530Z,4332.00
2019-03-08T09:58:27.524Z,4416.00
2019-03-08T09:59:27.650Z,5492.00
2019-03-08T10:00:27.514Z,7228.00
2019-03-08T10:01:27.486Z,6444.00
2019-03-08T10:02:27.474Z,4900.00
2019-03-08T10:03:27.464Z,4272.00
2019-03-08T10:04:27.456Z,4192.00
2019-03-08T10:05:27.473Z,5004.00
2019-03-08T10:06:27.429Z,7852.00
2019-03-08T10:07:27.415Z,12512.00
2019-03-08T10:08:27.405Z,19104.00
2019-03-08T10:09:27.391Z,12972.00
2019-03-08T10:10:27.403Z,8268.00
2019-03-08T10:11:27.367Z,7904.00
2019-03-08T10:12:29.315Z,11516.00
2019-03-08T10:13:27.345Z,17408.00
2019-03-08T10:14:27.334Z,31744.00
2019-03-08T10:15:27.329Z,16164.00
2019-03-08T10:16:27.346Z,17504.00
2019-03-08T10:17:27.299Z,15172.00
2019-03-08T10:18:27.289Z,10516.00
2019-03-08T10:19:27.279Z,10464.00
2019-03-08T10:20:27.269Z,14120.00
2019-03-08T10:21:27.274Z,19904.00
2019-03-08T10:22:27.247Z,21504.00
2019-03-08T10:23:27.230Z,8828.00
2019-03-08T10:24:27.220Z,7416.00
2019-03-08T10:25:27.209Z,8892.00
2019-03-08T10:26:27.215Z,11196.00
2019-03-08T10:27:27.187Z,12820.00
2019-03-08T10:28:27.174Z,9636.00
2019-03-08T10:29:27.162Z,9384.00
2019-03-08T10:30:27.154Z,8932.00
2019-03-08T10:31:27.161Z,8320.00
2019-03-08T10:32:27.129Z,7196.00
2019-03-08T10:33:27.117Z,7676.00
2019-03-08T10:34:27.105Z,12012.00
2019-03-08T10:35:27.096Z,23424.00
2019-03-08T10:36:27.103Z,39168.00
2019-03-08T10:37:27.073Z,182976.00
2019-03-08T10:38:27.059Z,141056.00
2019-03-08T10:39:27.047Z,92896.00
2019-03-08T10:40:27.038Z,20000.00
2019-03-08T10:41:27.041Z,19680.00
2019-03-08T10:42:27.014Z,18368.00
2019-03-08T10:43:27.001Z,16268.00
2019-03-08T10:44:26.990Z,16580.00
2019-03-08T10:45:26.978Z,16844.00
2019-03-08T10:46:26.983Z,17472.00
2019-03-08T10:47:26.952Z,19200.00
2019-03-08T10:48:26.943Z,17952.00
2019-03-08T10:49:26.932Z,16384.00
2019-03-08T10:50:26.920Z,17244.00
2019-03-08T10:51:26.928Z,19744.00
2019-03-08T10:52:26.896Z,21760.00
2019-03-08T10:53:26.886Z,20576.00
2019-03-08T10:54:26.878Z,16632.00
2019-03-08T10:55:26.859Z,13700.00
2019-03-08T10:56:26.848Z,12380.00
2019-03-08T10:57:26.860Z,12988.00
2019-03-08T10:58:26.833Z,14636.00
2019-03-08T10:59:26.818Z,17568.00
2019-03-08T11:00:26.803Z,20064.00
2019-03-08T11:01:26.791Z,26848.00
2019-03-08T11:02:26.797Z,19712.00
2019-03-08T11:03:26.768Z,18784.00
2019-03-08T11:04:26.757Z,21152.00
2019-03-08T11:05:26.748Z,24768.00
2019-03-08T11:06:26.734Z,27392.00
2019-03-08T11:07:26.739Z,21152.00
2019-03-08T11:08:29.698Z,15192.00
2019-03-08T11:09:26.697Z,11868.00
2019-03-08T11:10:26.685Z,9072.00
2019-03-08T11:11:26.672Z,7104.00
2019-03-08T11:12:26.709Z,6072.00
2019-03-08T11:13:26.653Z,5028.00
2019-03-08T11:14:26.640Z,4172.00
2019-03-08T11:15:26.634Z,3816.00
2019-03-08T11:16:26.616Z,2928.00
2019-03-08T11:17:26.603Z,2636.00
2019-03-08T11:18:26.611Z,2992.00
2019-03-08T11:19:27.658Z,4160.00
2019-03-08T11:20:26.572Z,6488.00
2019-03-08T11:21:26.559Z,9288.00
2019-03-08T11:22:26.548Z,11576.00
2019-03-08T11:23:26.556Z,14028.00
2019-03-08T11:24:26.523Z,15088.00
2019-03-08T11:25:34.675Z,13800.00
2019-03-08T11:26:27.507Z,13076.00
2019-03-08T11:27:26.490Z,14496.00
2019-03-08T11:28:26.499Z,15460.00
2019-03-08T11:29:26.468Z,16868.00
2019-03-08T11:30:26.456Z,18624.00
2019-03-08T11:31:26.445Z,19200.00
2019-03-08T11:32:26.434Z,17824.00
2019-03-08T11:33:26.439Z,14880.00
2019-03-08T11:34:26.409Z,11768.00
2019-03-08T11:35:26.399Z,10232.00
2019-03-08T11:36:26.386Z,10412.00
2019-03-08T11:37:27.829Z,10168.00
2019-03-08T11:38:26.382Z,8564.00
2019-03-08T11:39:26.354Z,6368.00
2019-03-08T11:40:26.340Z,5820.00
2019-03-08T11:41:26.329Z,5612.00
2019-03-08T11:42:26.324Z,6116.00
2019-03-08T11:43:26.325Z,6868.00
2019-03-08T11:44:26.294Z,9076.00
2019-03-08T11:45:26.384Z,10680.00
2019-03-08T11:46:26.272Z,12132.00
2019-03-08T11:47:26.259Z,13660.00
2019-03-08T11:48:26.268Z,14696.00
2019-03-08T11:49:26.235Z,15404.00
2019-03-08T11:50:26.224Z,16352.00
2019-03-08T11:51:26.213Z,17440.00
2019-03-08T11:52:26.202Z,19008.00
2019-03-08T11:53:26.237Z,20512.00
2019-03-08T11:54:26.183Z,22112.00
2019-03-08T11:55:26.168Z,22976.00
2019-03-08T11:56:26.160Z,22080.00
2019-03-08T11:57:26.144Z,22816.00
2019-03-08T11:58:26.219Z,25472.00
2019-03-08T11:59:26.139Z,24352.00
2019-03-08T12:00:26.109Z,30336.00
2019-03-08T12:01:26.096Z,50304.00
2019-03-08T12:02:26.087Z,31712.00
2019-03-08T12:03:26.075Z,58688.00
2019-03-08T12:04:26.086Z,41120.00
2019-03-08T12:05:26.053Z,48128.00
2019-03-08T12:06:26.038Z,57312.00
2019-03-08T12:07:26.028Z,55264.00
2019-03-08T12:08:26.020Z,57056.00
2019-03-08T12:09:26.030Z,61824.00
2019-03-08T12:10:25.996Z,37376.00
2019-03-08T12:11:25.983Z,38656.00
2019-03-08T12:12:25.970Z,22528.00
2019-03-08T12:13:25.959Z,22592.00
2019-03-08T12:14:25.967Z,82336.00
2019-03-08T12:15:25.960Z,104000.00
2019-03-08T12:16:25.923Z,96448.00
2019-03-08T12:17:25.913Z,91424.00
2019-03-08T12:18:25.901Z,88960.00
2019-03-08T12:19:25.911Z,90912.00
2019-03-08T12:20:25.880Z,91872.00
2019-03-08T12:21:25.866Z,91872.00
2019-03-08T12:22:25.857Z,84224.00
2019-03-08T12:23:25.843Z,71392.00
2019-03-08T12:24:25.853Z,66688.00
2019-03-08T12:25:25.823Z,70624.00
2019-03-08T12:26:25.824Z,26368.00
2019-03-08T12:27:25.801Z,10892.00
2019-03-08T12:28:25.786Z,11420.00
2019-03-08T12:29:25.800Z,14672.00
2019-03-08T12:30:25.767Z,14204.00
2019-03-08T12:31:25.756Z,13692.00
2019-03-08T12:32:25.745Z,25600.00
2019-03-08T12:33:25.732Z,13372.00
2019-03-08T12:34:25.716Z,13328.00